Airfield :
LOGIN :

Register | Disclaimer

   EN    FR    IT 

 










Legend :    VFR   Marginal VFR   IFR   Intensive IFR   Very Intensive IFR
Visi :
Ceiling :
>= 8 km
>= 3000ft
5 to 8 km
1000 to 3000 ft
1500m to 5 km
500 to 1000 ft
800 to 1500m
200 to 500 ft
< 800m
< 200 ft
Symbols :   Thunderstorms  Fog  Heavy snow  Heavy precipitations  Wind > 20 kt
SIGMETs :     Misc.  Thunderstorms  Icing  Turbulence  Mountain Waves  Volcanic Ashes






- Airport Elevation : 1276 ft
- IATA code : STR


EDDS - Stuttgart

CURRENT METAR :
  • 161520Z 29007KT 8000 RADZ SCT008 BKN012 BKN025 15/14 Q1018 TEMPO 4000

EXPIRED METARs :
  • 161450Z 28008KT 9000 -RADZ FEW009 BKN048 15/13 Q1018 TEMPO 4000 RADZ BKN013
  • 161420Z 30009KT 260V330 7000 -RADZ FEW008 BKN012 BKN020 15/13 Q1018 TEMPO 4000 RADZ
  • 161350Z 28004KT 240V300 9999 -RA FEW009 SCT011 BKN018 16/13 Q1018 TEMPO 4000 RADZ BKN011
  • 161320Z 27006KT 230V300 9999 -RA FEW008 SCT011 15/13 Q1018 RERA TEMPO 4000 RADZ BKN011
  • 161250Z 28005KT 240V320 9000 -RA FEW007 SCT013 BKN045 15/13 Q1018 RERA TEMPO 4500 RA BKN013

TAF TAF EDDS
Valid from the 16 at 12:00 until the 17 at 12:00 UTC


161100Z 1612/1712 25007KT 9999 SCT012 BKN025
TEMPO 1612/1619 RA BKN012
BECMG 1622/1701 32004KT BKN012
TEMPO 1701/1709 4000 -RA BR SCT003 BKN007
BECMG 1709/1711 SCT010 BKN025



MET'MAP, your aeronautical weather chart ! - Copyright ORBIFLY December 2007 - Disclaimer

ORBIFLY MET'MAP TEAM :

Programming & Development : Alexandra Zaïnal
Concept & original design : Baudouin d'Aumeries
Assistance for programming : Marc-Olivier Méhu
Technical & hardware support : Manuel Goepfert

Contact : metmap@orbifly.com




SOURCES & CREDITS :

   NOAA